createdAt,value
2017-07-26T00:00:23.084Z,995.58
2017-07-26T00:01:23.107Z,995.55
2017-07-26T00:02:23.130Z,995.58
2017-07-26T00:03:23.156Z,995.58
2017-07-26T00:04:23.181Z,995.56
2017-07-26T00:05:23.204Z,995.59
2017-07-26T00:06:23.228Z,995.56
2017-07-26T00:07:23.258Z,995.55
2017-07-26T00:08:23.277Z,995.54
2017-07-26T00:09:23.301Z,995.55
2017-07-26T00:10:23.323Z,995.5
2017-07-26T00:11:23.350Z,995.49
2017-07-26T00:12:23.372Z,995.5
2017-07-26T00:13:23.398Z,995.49
2017-07-26T00:14:23.424Z,995.49
2017-07-26T00:15:23.446Z,995.5
2017-07-26T00:16:23.465Z,995.52
2017-07-26T00:18:23.516Z,995.47
2017-07-26T00:19:23.543Z,995.54
2017-07-26T00:20:23.563Z,995.52
2017-07-26T00:21:23.588Z,995.53
2017-07-26T00:22:23.614Z,995.52
2017-07-26T00:23:23.637Z,995.51
2017-07-26T00:24:23.661Z,995.53
2017-07-26T00:25:23.686Z,995.48
2017-07-26T00:26:23.711Z,995.46
2017-07-26T00:27:23.736Z,995.48
2017-07-26T00:28:23.759Z,995.46
2017-07-26T00:29:23.780Z,995.48
2017-07-26T00:30:23.807Z,995.51
2017-07-26T00:31:23.838Z,995.45
2017-07-26T00:32:23.855Z,995.48
2017-07-26T00:34:23.905Z,995.48
2017-07-26T00:35:23.928Z,995.49
2017-07-26T00:36:23.952Z,995.47
2017-07-26T00:37:23.975Z,995.48
2017-07-26T00:38:23.998Z,995.51
2017-07-26T00:39:24.023Z,995.53
2017-07-26T00:40:24.042Z,995.53
2017-07-26T00:41:24.072Z,995.5
2017-07-26T00:42:24.093Z,995.48
2017-07-26T00:43:24.118Z,995.48
2017-07-26T00:44:24.143Z,995.53
2017-07-26T00:45:24.168Z,995.51
2017-07-26T00:46:24.190Z,995.48
2017-07-26T00:47:24.218Z,995.51
2017-07-26T00:48:24.239Z,995.47
2017-07-26T00:50:24.283Z,995.48
2017-07-26T00:51:24.311Z,995.45
2017-07-26T00:52:24.338Z,995.44
2017-07-26T00:53:24.360Z,995.45
2017-07-26T00:54:24.383Z,995.41
2017-07-26T00:55:24.409Z,995.38
2017-07-26T00:56:24.430Z,995.35
2017-07-26T00:57:24.456Z,995.3
2017-07-26T00:58:24.476Z,995.26
2017-07-26T00:59:24.505Z,995.25
2017-07-26T01:00:24.527Z,995.22
2017-07-26T01:01:24.552Z,995.26
2017-07-26T01:02:24.576Z,995.29
2017-07-26T01:03:24.602Z,995.32
2017-07-26T01:04:24.623Z,995.38
2017-07-26T01:06:24.674Z,995.37
2017-07-26T01:07:24.693Z,995.35
2017-07-26T01:08:24.719Z,995.35
2017-07-26T01:09:24.744Z,995.3
2017-07-26T01:10:24.768Z,995.34
2017-07-26T01:11:24.793Z,995.32
2017-07-26T01:12:24.816Z,995.31
2017-07-26T01:13:24.835Z,995.32
2017-07-26T01:14:24.867Z,995.3
2017-07-26T01:15:24.886Z,995.31
2017-07-26T01:16:24.908Z,995.31
2017-07-26T01:17:24.932Z,995.31
2017-07-26T01:18:24.960Z,995.34
2017-07-26T01:19:24.985Z,995.33
2017-07-26T01:21:25.033Z,995.31
2017-07-26T01:22:25.055Z,995.37
2017-07-26T01:23:25.080Z,995.37
2017-07-26T01:24:25.100Z,995.36
2017-07-26T01:25:25.132Z,995.34
2017-07-26T01:26:25.153Z,995.34
2017-07-26T01:27:25.173Z,995.34
2017-07-26T01:28:25.201Z,995.35
2017-07-26T01:29:25.219Z,995.34
2017-07-26T01:30:25.248Z,995.33
2017-07-26T01:31:25.273Z,995.32
2017-07-26T01:32:25.297Z,995.39
2017-07-26T01:33:25.318Z,995.38
2017-07-26T01:34:25.345Z,995.37
2017-07-26T01:35:25.366Z,995.41
2017-07-26T01:36:25.395Z,995.4
2017-07-26T01:37:25.416Z,995.39
2017-07-26T01:38:25.441Z,995.4
2017-07-26T01:39:25.463Z,995.42
2017-07-26T01:40:25.487Z,995.43
2017-07-26T01:41:25.511Z,995.43
2017-07-26T01:42:25.537Z,995.41
2017-07-26T01:43:25.560Z,995.42
2017-07-26T01:44:25.585Z,995.39
2017-07-26T01:45:25.610Z,995.4
2017-07-26T01:46:25.634Z,995.41
2017-07-26T01:47:25.660Z,995.43
2017-07-26T01:48:25.680Z,995.44
2017-07-26T01:49:25.706Z,995.41
2017-07-26T01:50:25.729Z,995.39
2017-07-26T01:51:25.750Z,995.36
2017-07-26T01:53:25.796Z,995.35
2017-07-26T01:54:25.825Z,995.33
2017-07-26T01:55:25.849Z,995.29
2017-07-26T01:56:25.873Z,995.29
2017-07-26T01:57:25.898Z,995.21
2017-07-26T01:58:25.921Z,995.14
2017-07-26T01:59:25.939Z,995.11
2017-07-26T02:00:25.969Z,995.06
2017-07-26T02:01:25.994Z,995.03
2017-07-26T02:02:26.015Z,995.04
2017-07-26T02:03:26.040Z,995.04
2017-07-26T02:04:26.067Z,995.07
2017-07-26T02:05:26.091Z,995.12
2017-07-26T02:06:26.110Z,995.13
2017-07-26T02:07:26.137Z,995.17
2017-07-26T02:09:26.190Z,995.22
2017-07-26T02:10:26.208Z,995.22
2017-07-26T02:11:26.235Z,995.21
2017-07-26T02:12:26.257Z,995.21
2017-07-26T02:13:26.281Z,995.2
2017-07-26T02:14:26.304Z,995.17
2017-07-26T02:15:26.329Z,995.14
2017-07-26T02:16:26.349Z,995.11
2017-07-26T02:17:26.374Z,995.11
2017-07-26T02:18:26.402Z,995.07
2017-07-26T02:19:26.419Z,995.07
2017-07-26T02:20:26.447Z,995.1
2017-07-26T02:21:26.489Z,995.09
2017-07-26T02:22:26.494Z,995.14
2017-07-26T02:23:26.518Z,995.12
2017-07-26T02:25:26.568Z,995.21
2017-07-26T02:26:26.594Z,995.2
2017-07-26T02:27:26.614Z,995.25
2017-07-26T02:28:26.638Z,995.25
2017-07-26T02:29:26.663Z,995.25
2017-07-26T02:30:26.684Z,995.33
2017-07-26T02:31:26.711Z,995.35
2017-07-26T02:32:26.731Z,995.33
2017-07-26T02:33:26.759Z,995.32
2017-07-26T02:34:26.778Z,995.33
2017-07-26T02:35:26.803Z,995.32
2017-07-26T02:36:26.828Z,995.31
2017-07-26T02:37:26.854Z,995.32
2017-07-26T02:38:26.877Z,995.32
2017-07-26T02:39:26.897Z,995.34
2017-07-26T02:41:26.950Z,995.35
2017-07-26T02:42:26.977Z,995.39
2017-07-26T02:43:26.993Z,995.36
2017-07-26T02:44:27.024Z,995.38
2017-07-26T02:45:27.046Z,995.39
2017-07-26T02:46:27.064Z,995.42
2017-07-26T02:47:27.093Z,995.38
2017-07-26T02:48:27.114Z,995.38
2017-07-26T02:49:27.141Z,995.37
2017-07-26T02:50:27.162Z,995.36
2017-07-26T02:51:27.190Z,995.38
2017-07-26T02:52:27.214Z,995.38
2017-07-26T02:53:27.237Z,995.38
2017-07-26T02:54:27.257Z,995.34
2017-07-26T02:56:27.309Z,995.41
2017-07-26T02:57:27.330Z,995.39
2017-07-26T02:58:27.356Z,995.37
2017-07-26T02:59:27.380Z,995.34
2017-07-26T03:00:27.405Z,995.36
2017-07-26T03:01:27.425Z,995.34
2017-07-26T03:02:27.452Z,995.35
2017-07-26T03:03:27.477Z,995.31
2017-07-26T03:04:27.498Z,995.27
2017-07-26T03:05:27.520Z,995.26
2017-07-26T03:06:27.547Z,995.26
2017-07-26T03:07:27.572Z,995.25
2017-07-26T03:08:27.596Z,995.24
2017-07-26T03:09:27.619Z,995.27
2017-07-26T03:10:27.642Z,995.3
2017-07-26T03:11:27.667Z,995.27
2017-07-26T03:12:27.690Z,995.27
2017-07-26T03:13:27.718Z,995.25
2017-07-26T03:14:27.737Z,995.24
2017-07-26T03:15:27.762Z,995.26
2017-07-26T03:16:27.787Z,995.27
2017-07-26T03:17:27.859Z,995.24
2017-07-26T03:18:27.835Z,995.24
2017-07-26T03:19:27.859Z,995.21
2017-07-26T03:20:27.880Z,995.22
2017-07-26T03:21:27.907Z,995.16
2017-07-26T03:22:27.931Z,995.18
2017-07-26T03:23:27.957Z,995.13
2017-07-26T03:24:27.979Z,995.14
2017-07-26T03:25:28.001Z,995.1
2017-07-26T03:26:28.025Z,995.12
2017-07-26T03:28:28.074Z,995.08
2017-07-26T03:29:28.096Z,995.09
2017-07-26T03:30:28.122Z,995.11
2017-07-26T03:31:28.145Z,995.09
2017-07-26T03:32:28.170Z,995.08
2017-07-26T03:33:28.194Z,995.07
2017-07-26T03:34:28.215Z,995.09
2017-07-26T03:35:28.240Z,995.05
2017-07-26T03:36:28.264Z,995.06
2017-07-26T03:37:28.287Z,995.06
2017-07-26T03:38:28.312Z,995.07
2017-07-26T03:39:28.332Z,995.05
2017-07-26T03:40:28.363Z,995.06
2017-07-26T03:41:28.381Z,995.02
2017-07-26T03:42:28.409Z,995.05
2017-07-26T03:44:28.455Z,995.03
2017-07-26T03:45:28.480Z,995.01
2017-07-26T03:46:28.505Z,995.05
2017-07-26T03:47:28.529Z,995.03
2017-07-26T03:48:28.552Z,995.01
2017-07-26T03:49:28.578Z,994.98
2017-07-26T03:50:28.598Z,994.96
2017-07-26T03:51:28.625Z,994.96
2017-07-26T03:52:28.647Z,994.99
2017-07-26T03:53:28.672Z,994.94
2017-07-26T03:54:28.696Z,994.98
2017-07-26T03:55:28.716Z,994.95
2017-07-26T03:56:28.743Z,994.97
2017-07-26T03:57:28.769Z,994.99
2017-07-26T03:58:28.792Z,995
2017-07-26T04:00:28.836Z,994.95
2017-07-26T04:01:28.863Z,994.95
2017-07-26T04:02:28.884Z,994.91
2017-07-26T04:03:28.913Z,994.91
2017-07-26T04:04:28.934Z,994.88
2017-07-26T04:05:28.946Z,994.89
2017-07-26T04:06:28.983Z,994.9
2017-07-26T04:07:29.006Z,994.92
2017-07-26T04:08:29.027Z,994.95
2017-07-26T04:09:29.055Z,994.94
2017-07-26T04:10:29.081Z,994.95
2017-07-26T04:11:29.102Z,994.88
2017-07-26T04:12:29.128Z,994.91
2017-07-26T04:13:29.153Z,994.9
2017-07-26T04:14:29.175Z,994.9
2017-07-26T04:16:29.222Z,994.93
2017-07-26T04:17:29.245Z,994.91
2017-07-26T04:18:29.270Z,994.96
2017-07-26T04:19:29.292Z,994.96
2017-07-26T04:20:29.317Z,994.95
2017-07-26T04:21:29.342Z,994.96
2017-07-26T04:22:29.388Z,994.96
2017-07-26T04:23:29.392Z,994.96
2017-07-26T04:24:29.414Z,994.98
2017-07-26T04:25:29.438Z,994.99
2017-07-26T04:26:29.467Z,994.99
2017-07-26T04:27:29.484Z,994.97
2017-07-26T04:28:29.511Z,995
2017-07-26T04:29:29.533Z,994.99
2017-07-26T04:31:29.583Z,994.96
2017-07-26T04:32:29.606Z,994.98
2017-07-26T04:33:29.632Z,994.97
2017-07-26T04:34:29.651Z,994.95
2017-07-26T04:35:29.677Z,994.99
2017-07-26T04:36:29.701Z,994.95
2017-07-26T04:37:29.722Z,994.99
2017-07-26T04:38:29.751Z,994.99
2017-07-26T04:39:29.774Z,995.03
2017-07-26T04:40:29.796Z,995.02
2017-07-26T04:41:29.820Z,995.02
2017-07-26T04:42:29.844Z,995.04
2017-07-26T04:43:29.868Z,995.02
2017-07-26T04:44:29.892Z,995.04
2017-07-26T04:45:29.920Z,994.98
2017-07-26T04:46:29.944Z,995.01
2017-07-26T04:47:29.961Z,995.01
2017-07-26T04:48:29.991Z,995.02
2017-07-26T04:49:30.012Z,995.01
2017-07-26T04:50:30.039Z,995.03
2017-07-26T04:51:30.062Z,995.01
2017-07-26T04:52:30.085Z,995.04
2017-07-26T04:53:30.110Z,995.02
2017-07-26T04:54:30.129Z,995
2017-07-26T04:55:30.156Z,995.03
2017-07-26T04:56:30.182Z,994.99
2017-07-26T04:57:30.203Z,994.98
2017-07-26T04:58:30.227Z,995.01
2017-07-26T04:59:30.255Z,994.98
2017-07-26T05:00:30.275Z,995
2017-07-26T05:01:30.301Z,995
2017-07-26T05:03:30.350Z,994.95
2017-07-26T05:04:30.372Z,994.99
2017-07-26T05:05:30.395Z,995.02
2017-07-26T05:06:30.421Z,994.99
2017-07-26T05:07:30.446Z,995
2017-07-26T05:08:30.473Z,994.99
2017-07-26T05:09:30.498Z,995
2017-07-26T05:10:30.515Z,994.97
2017-07-26T05:11:30.541Z,994.95
2017-07-26T05:12:30.566Z,994.98
2017-07-26T05:13:30.590Z,994.93
2017-07-26T05:14:30.613Z,994.93
2017-07-26T05:15:30.637Z,994.92
2017-07-26T05:16:30.659Z,994.94
2017-07-26T05:17:30.684Z,994.92
2017-07-26T05:19:30.733Z,994.91
2017-07-26T05:20:30.756Z,994.94
2017-07-26T05:21:30.780Z,994.94
2017-07-26T05:22:30.802Z,994.92
2017-07-26T05:23:30.827Z,994.95
2017-07-26T05:24:30.854Z,994.92
2017-07-26T05:25:30.876Z,994.9
2017-07-26T05:26:30.901Z,994.86
2017-07-26T05:27:30.924Z,994.82
2017-07-26T05:28:30.950Z,994.8
2017-07-26T05:29:31.022Z,994.85
2017-07-26T05:30:30.998Z,994.8
2017-07-26T05:31:31.020Z,994.81
2017-07-26T05:32:31.040Z,994.79
2017-07-26T05:33:31.067Z,994.8
2017-07-26T05:35:31.118Z,994.83
2017-07-26T05:36:31.136Z,994.84
2017-07-26T05:37:31.162Z,994.84
2017-07-26T05:38:31.191Z,994.84
2017-07-26T05:39:31.216Z,994.85
2017-07-26T05:40:31.236Z,994.84
2017-07-26T05:41:31.256Z,994.81
2017-07-26T05:42:31.284Z,994.81
2017-07-26T05:43:31.309Z,994.79
2017-07-26T05:44:31.327Z,994.8
2017-07-26T05:45:31.355Z,994.76
2017-07-26T05:46:31.379Z,994.76
2017-07-26T05:47:31.403Z,994.74
2017-07-26T05:48:31.424Z,994.72
2017-07-26T05:49:31.450Z,994.76
2017-07-26T05:51:31.498Z,994.73
2017-07-26T05:52:31.524Z,994.73
2017-07-26T05:53:31.548Z,994.71
2017-07-26T05:54:31.574Z,994.73
2017-07-26T05:55:31.595Z,994.7
2017-07-26T05:56:31.617Z,994.72
2017-07-26T05:57:31.644Z,994.75
2017-07-26T05:58:31.666Z,994.75
2017-07-26T05:59:31.690Z,994.73
2017-07-26T06:00:31.715Z,994.71
2017-07-26T06:01:31.738Z,994.72
2017-07-26T06:02:31.762Z,994.71
2017-07-26T06:03:31.787Z,994.7
2017-07-26T06:04:31.807Z,994.7
2017-07-26T06:06:31.859Z,994.67
2017-07-26T06:07:31.881Z,994.67
2017-07-26T06:08:31.906Z,994.67
2017-07-26T06:09:31.931Z,994.67
2017-07-26T06:10:31.952Z,994.66
2017-07-26T06:11:31.978Z,994.63
2017-07-26T06:12:32.002Z,994.64
2017-07-26T06:13:32.027Z,994.64
2017-07-26T06:14:32.049Z,994.61
2017-07-26T06:15:32.073Z,994.55
2017-07-26T06:16:32.097Z,994.55
2017-07-26T06:17:32.119Z,994.53
2017-07-26T06:18:32.146Z,994.55
2017-07-26T06:19:32.168Z,994.58
2017-07-26T06:20:32.193Z,994.5
2017-07-26T06:21:32.213Z,994.54
2017-07-26T06:22:32.240Z,994.57
2017-07-26T06:23:32.261Z,994.56
2017-07-26T06:24:32.289Z,994.52
2017-07-26T06:25:32.312Z,994.45
2017-07-26T06:26:32.333Z,994.51
2017-07-26T06:27:32.358Z,994.47
2017-07-26T06:28:32.384Z,994.45
2017-07-26T06:29:32.406Z,994.44
2017-07-26T06:30:32.431Z,994.41
2017-07-26T06:31:32.453Z,994.38
2017-07-26T06:32:32.481Z,994.41
2017-07-26T06:33:32.502Z,994.41
2017-07-26T06:34:32.523Z,994.44
2017-07-26T06:35:32.554Z,994.42
2017-07-26T06:36:32.577Z,994.39
2017-07-26T06:38:32.624Z,994.41
2017-07-26T06:39:32.648Z,994.42
2017-07-26T06:40:32.675Z,994.44
2017-07-26T06:41:32.694Z,994.37
2017-07-26T06:42:32.718Z,994.41
2017-07-26T06:43:32.740Z,994.45
2017-07-26T06:44:32.765Z,994.45
2017-07-26T06:45:32.785Z,994.41
2017-07-26T06:46:32.812Z,994.42
2017-07-26T06:47:32.837Z,994.4
2017-07-26T06:48:32.859Z,994.45
2017-07-26T06:49:32.886Z,994.44
2017-07-26T06:50:32.906Z,994.43
2017-07-26T06:51:32.935Z,994.51
2017-07-26T06:52:32.959Z,994.46
2017-07-26T06:54:33.007Z,994.41
2017-07-26T06:55:33.032Z,994.41
2017-07-26T06:56:33.050Z,994.4
2017-07-26T06:57:33.078Z,994.45
2017-07-26T06:58:33.102Z,994.42
2017-07-26T06:59:33.124Z,994.46
2017-07-26T07:00:33.148Z,994.44
2017-07-26T07:01:33.169Z,994.45
2017-07-26T07:02:33.197Z,994.44
2017-07-26T07:03:33.218Z,994.41
2017-07-26T07:04:33.246Z,994.45
2017-07-26T07:05:33.268Z,994.43
2017-07-26T07:06:33.291Z,994.42
2017-07-26T07:07:33.317Z,994.4
2017-07-26T07:08:33.340Z,994.39
2017-07-26T07:10:33.388Z,994.44
2017-07-26T07:11:33.415Z,994.42
2017-07-26T07:12:33.436Z,994.4
2017-07-26T07:13:33.455Z,994.38
2017-07-26T07:14:33.482Z,994.45
2017-07-26T07:15:33.508Z,994.46
2017-07-26T07:16:33.532Z,994.44
2017-07-26T07:17:33.555Z,994.44
2017-07-26T07:18:33.583Z,994.46
2017-07-26T07:19:33.608Z,994.47
2017-07-26T07:20:33.627Z,994.43
2017-07-26T07:21:33.653Z,994.44
2017-07-26T07:22:33.675Z,994.5
2017-07-26T07:23:33.700Z,994.47
2017-07-26T07:24:33.724Z,994.47
2017-07-26T07:26:33.771Z,994.42
2017-07-26T07:27:33.796Z,994.47
2017-07-26T07:28:33.820Z,994.45
2017-07-26T07:29:33.846Z,994.4
2017-07-26T07:30:33.867Z,994.42
2017-07-26T07:31:33.892Z,994.44
2017-07-26T07:32:33.916Z,994.44
2017-07-26T07:33:33.944Z,994.47
2017-07-26T07:34:34.014Z,994.43
2017-07-26T07:35:33.985Z,994.48
2017-07-26T07:36:34.012Z,994.5
2017-07-26T07:37:34.033Z,994.48
2017-07-26T07:38:34.057Z,994.49
2017-07-26T07:39:34.081Z,994.5
2017-07-26T07:41:34.136Z,994.48
2017-07-26T07:42:34.158Z,994.51
2017-07-26T07:43:34.181Z,994.52
2017-07-26T07:44:34.205Z,994.51
2017-07-26T07:45:34.226Z,994.48
2017-07-26T07:46:34.252Z,994.49
2017-07-26T07:47:34.280Z,994.5
2017-07-26T07:48:34.300Z,994.46
2017-07-26T07:49:34.323Z,994.49
2017-07-26T07:50:34.352Z,994.52
2017-07-26T07:51:34.368Z,994.49
2017-07-26T07:52:34.395Z,994.51
2017-07-26T07:53:34.419Z,994.54
2017-07-26T07:54:34.447Z,994.53
2017-07-26T07:55:34.470Z,994.54
2017-07-26T07:56:34.491Z,994.54
2017-07-26T07:57:34.517Z,994.52
2017-07-26T07:58:34.542Z,994.61
2017-07-26T07:59:34.566Z,994.63
2017-07-26T08:00:34.590Z,994.61
2017-07-26T08:01:34.610Z,994.65
2017-07-26T08:02:34.640Z,994.62
2017-07-26T08:03:34.661Z,994.62
2017-07-26T08:04:34.686Z,994.61
2017-07-26T08:05:34.711Z,994.63
2017-07-26T08:06:34.735Z,994.6
2017-07-26T08:07:34.758Z,994.68
2017-07-26T08:08:34.781Z,994.69
2017-07-26T08:09:34.857Z,994.66
2017-07-26T08:10:34.830Z,994.69
2017-07-26T08:11:34.857Z,994.7
2017-07-26T08:13:34.906Z,994.65
2017-07-26T08:14:34.928Z,994.69
2017-07-26T08:15:34.951Z,994.74
2017-07-26T08:16:34.977Z,994.75
2017-07-26T08:17:35.000Z,994.76
2017-07-26T08:18:35.021Z,994.77
2017-07-26T08:19:35.048Z,994.74
2017-07-26T08:20:35.070Z,994.78
2017-07-26T08:21:35.096Z,994.78
2017-07-26T08:22:35.122Z,994.77
2017-07-26T08:23:35.142Z,994.79
2017-07-26T08:24:35.165Z,994.78
2017-07-26T08:25:35.193Z,994.83
2017-07-26T08:26:35.215Z,994.81
2017-07-26T08:27:35.250Z,994.8
2017-07-26T08:29:35.290Z,994.78
2017-07-26T08:30:35.310Z,994.83
2017-07-26T08:31:35.340Z,994.79
2017-07-26T08:32:35.362Z,994.8
2017-07-26T08:33:35.385Z,994.81
2017-07-26T08:34:35.414Z,994.77
2017-07-26T08:35:35.439Z,994.76
2017-07-26T08:36:35.454Z,994.74
2017-07-26T08:37:35.482Z,994.81
2017-07-26T08:38:35.509Z,994.8
2017-07-26T08:39:35.532Z,994.81
2017-07-26T08:40:35.557Z,994.77
2017-07-26T08:41:35.585Z,994.84
2017-07-26T08:42:35.604Z,994.86
2017-07-26T08:43:35.629Z,994.85
2017-07-26T08:45:35.678Z,994.83
2017-07-26T08:46:35.699Z,994.83
2017-07-26T08:47:35.725Z,994.81
2017-07-26T08:48:35.745Z,994.83
2017-07-26T08:49:35.773Z,994.84
2017-07-26T08:50:35.800Z,994.84
2017-07-26T08:51:35.870Z,994.84
2017-07-26T08:52:35.843Z,994.82
2017-07-26T08:53:35.873Z,994.87
2017-07-26T08:54:35.894Z,994.87
2017-07-26T08:55:35.918Z,994.9
2017-07-26T08:56:35.946Z,994.88
2017-07-26T08:57:35.969Z,994.88
2017-07-26T08:58:35.988Z,994.86
2017-07-26T08:59:36.012Z,994.92
2017-07-26T09:01:36.069Z,994.87
2017-07-26T09:02:36.090Z,994.87
2017-07-26T09:03:36.114Z,994.93
2017-07-26T09:04:36.132Z,994.95
2017-07-26T09:05:36.159Z,994.93
2017-07-26T09:06:36.185Z,994.93
2017-07-26T09:07:36.209Z,994.92
2017-07-26T09:08:36.234Z,994.94
2017-07-26T09:09:36.259Z,994.96
2017-07-26T09:10:36.280Z,994.93
2017-07-26T09:11:36.306Z,994.99
2017-07-26T09:12:36.327Z,995
2017-07-26T09:13:36.353Z,995.05
2017-07-26T09:14:36.378Z,994.95
2017-07-26T09:16:36.426Z,994.97
2017-07-26T09:17:36.452Z,994.97
2017-07-26T09:18:36.474Z,994.99
2017-07-26T09:19:36.500Z,994.99
2017-07-26T09:20:36.527Z,995.02
2017-07-26T09:21:36.551Z,995.05
2017-07-26T09:22:36.577Z,995.01
2017-07-26T09:23:36.598Z,995.02
2017-07-26T09:24:36.618Z,995.03
2017-07-26T09:25:36.647Z,995.06
2017-07-26T09:26:36.667Z,995.06
2017-07-26T09:27:36.694Z,995.07
2017-07-26T09:28:36.720Z,995.06
2017-07-26T09:29:36.748Z,995.11
2017-07-26T09:30:36.770Z,995.15
2017-07-26T09:31:36.796Z,995.08
2017-07-26T09:32:36.816Z,995.06
2017-07-26T09:33:36.841Z,995.11
2017-07-26T09:34:36.866Z,995.08
2017-07-26T09:35:36.889Z,995.08
2017-07-26T09:36:36.914Z,995.08
2017-07-26T09:37:36.936Z,995.14
2017-07-26T09:38:36.966Z,995.13
2017-07-26T09:39:36.986Z,995.11
2017-07-26T09:40:37.012Z,995.13
2017-07-26T09:41:37.034Z,995.19
2017-07-26T09:42:37.061Z,995.15
2017-07-26T09:43:37.082Z,995.17
2017-07-26T09:44:37.108Z,995.21
2017-07-26T09:45:37.133Z,995.18
2017-07-26T09:46:37.161Z,995.22
2017-07-26T09:48:37.208Z,995.21
2017-07-26T09:49:37.232Z,995.23
2017-07-26T09:50:37.254Z,995.25
2017-07-26T09:51:37.281Z,995.22
2017-07-26T09:52:37.306Z,995.27
2017-07-26T09:53:37.330Z,995.3
2017-07-26T09:54:37.351Z,995.27
2017-07-26T09:55:37.378Z,995.21
2017-07-26T09:56:37.405Z,995.26
2017-07-26T09:57:37.426Z,995.25
2017-07-26T09:58:37.449Z,995.25
2017-07-26T09:59:37.475Z,995.26
2017-07-26T10:00:37.497Z,995.25
2017-07-26T10:01:37.524Z,995.28
2017-07-26T10:02:37.546Z,995.22
2017-07-26T10:04:37.648Z,995.27
2017-07-26T10:05:37.618Z,995.32
2017-07-26T10:06:37.644Z,995.3
2017-07-26T10:07:37.670Z,995.32
2017-07-26T10:08:37.694Z,995.32
2017-07-26T10:09:37.718Z,995.32
2017-07-26T10:10:37.747Z,995.35
2017-07-26T10:11:37.770Z,995.32
2017-07-26T10:12:37.795Z,995.34
2017-07-26T10:13:37.815Z,995.31
2017-07-26T10:14:37.841Z,995.36
2017-07-26T10:15:37.862Z,995.37
2017-07-26T10:16:37.885Z,995.39
2017-07-26T10:17:37.910Z,995.35
2017-07-26T10:18:37.942Z,995.34
2017-07-26T10:20:37.987Z,995.39
2017-07-26T10:21:38.014Z,995.39
2017-07-26T10:22:38.037Z,995.42
2017-07-26T10:23:38.057Z,995.44
2017-07-26T10:24:38.081Z,995.49
2017-07-26T10:25:38.109Z,995.44
2017-07-26T10:26:38.134Z,995.5
2017-07-26T10:27:38.159Z,995.44
2017-07-26T10:28:38.181Z,995.46
2017-07-26T10:29:38.206Z,995.48
2017-07-26T10:30:38.230Z,995.52
2017-07-26T10:31:38.251Z,995.5
2017-07-26T10:32:38.283Z,995.5
2017-07-26T10:33:38.304Z,995.54
2017-07-26T10:34:38.327Z,995.55
2017-07-26T10:36:38.377Z,995.55
2017-07-26T10:37:38.397Z,995.56
2017-07-26T10:38:38.422Z,995.56
2017-07-26T10:39:38.451Z,995.6
2017-07-26T10:40:38.477Z,995.59
2017-07-26T10:41:38.499Z,995.59
2017-07-26T10:42:38.525Z,995.62
2017-07-26T10:43:38.545Z,995.58
2017-07-26T10:44:38.574Z,995.63
2017-07-26T10:45:38.597Z,995.63
2017-07-26T10:46:38.622Z,995.62
2017-07-26T10:47:38.640Z,995.65
2017-07-26T10:48:38.668Z,995.63
2017-07-26T10:49:38.692Z,995.66
2017-07-26T10:51:38.744Z,995.72
2017-07-26T10:52:38.767Z,995.73
2017-07-26T10:53:38.792Z,995.71
2017-07-26T10:54:38.817Z,995.77
2017-07-26T10:55:38.840Z,995.82
2017-07-26T10:56:38.869Z,995.78
2017-07-26T10:57:38.890Z,995.84
2017-07-26T10:58:38.916Z,995.86
2017-07-26T10:59:38.935Z,995.88
2017-07-26T11:00:38.965Z,995.88
2017-07-26T11:01:38.988Z,995.89
2017-07-26T11:02:39.009Z,995.92
2017-07-26T11:03:39.037Z,995.95
2017-07-26T11:04:39.062Z,995.94
2017-07-26T11:05:39.087Z,995.96
2017-07-26T11:06:39.111Z,995.98
2017-07-26T11:07:39.134Z,995.93
2017-07-26T11:08:39.157Z,995.94
2017-07-26T11:09:39.184Z,996.07
2017-07-26T11:10:39.208Z,995.95
2017-07-26T11:11:39.235Z,995.96
2017-07-26T11:12:39.254Z,996
2017-07-26T11:13:39.283Z,996
2017-07-26T11:14:39.307Z,996.01
2017-07-26T11:15:39.331Z,996.01
2017-07-26T11:16:39.353Z,996.05
2017-07-26T11:17:39.380Z,996.05
2017-07-26T11:18:39.402Z,996.05
2017-07-26T11:19:39.428Z,996.06
2017-07-26T11:20:39.453Z,996.11
2017-07-26T11:21:39.477Z,996.09
2017-07-26T11:23:39.527Z,996.1
2017-07-26T11:24:39.552Z,996.09
2017-07-26T11:25:39.576Z,996.13
2017-07-26T11:26:39.600Z,996.1
2017-07-26T11:27:39.621Z,996.11
2017-07-26T11:28:39.649Z,996.14
2017-07-26T11:29:39.674Z,996.17
2017-07-26T11:30:39.696Z,996.13
2017-07-26T11:31:39.723Z,996.17
2017-07-26T11:32:39.744Z,996.18
2017-07-26T11:33:39.772Z,996.17
2017-07-26T11:34:39.795Z,996.21
2017-07-26T11:35:39.822Z,996.2
2017-07-26T11:36:39.848Z,996.13
2017-07-26T11:37:39.870Z,996.22
2017-07-26T11:39:39.923Z,996.16
2017-07-26T11:40:39.941Z,996.22
2017-07-26T11:41:39.969Z,996.21
2017-07-26T11:42:39.989Z,996.31
2017-07-26T11:43:40.017Z,996.28
2017-07-26T11:44:40.042Z,996.29
2017-07-26T11:45:40.069Z,996.28
2017-07-26T11:46:40.090Z,996.28
2017-07-26T11:47:40.117Z,996.32
2017-07-26T11:48:40.139Z,996.3
2017-07-26T11:49:40.165Z,996.36
2017-07-26T11:50:40.187Z,996.35
2017-07-26T11:51:40.215Z,996.36
2017-07-26T11:52:40.239Z,996.36
2017-07-26T11:53:40.265Z,996.4
2017-07-26T11:55:40.316Z,996.38
2017-07-26T11:56:40.336Z,996.38
2017-07-26T11:57:40.361Z,996.37
2017-07-26T11:58:40.384Z,996.44
2017-07-26T11:59:40.406Z,996.44
2017-07-26T12:00:40.435Z,996.45
2017-07-26T12:01:40.461Z,996.42
2017-07-26T12:02:40.482Z,996.44
2017-07-26T12:03:40.504Z,996.48
2017-07-26T12:04:40.530Z,996.49
2017-07-26T12:05:40.557Z,996.5
2017-07-26T12:06:40.582Z,996.51
2017-07-26T12:07:40.608Z,996.52
2017-07-26T12:08:40.631Z,996.53
2017-07-26T12:09:40.660Z,996.58
2017-07-26T12:11:40.700Z,996.56
2017-07-26T12:12:40.728Z,996.63
2017-07-26T12:13:40.747Z,996.62
2017-07-26T12:14:40.777Z,996.61
2017-07-26T12:15:40.800Z,996.64
2017-07-26T12:16:40.820Z,996.68
2017-07-26T12:17:40.850Z,996.71
2017-07-26T12:18:40.873Z,996.69
2017-07-26T12:19:40.902Z,996.73
2017-07-26T12:20:40.919Z,996.74
2017-07-26T12:21:40.948Z,996.75
2017-07-26T12:22:40.972Z,996.77
2017-07-26T12:23:40.997Z,996.76
2017-07-26T12:24:41.021Z,996.84
2017-07-26T12:26:41.075Z,996.81
2017-07-26T12:27:41.091Z,996.86
2017-07-26T12:28:41.122Z,996.88
2017-07-26T12:29:41.142Z,996.88
2017-07-26T12:30:41.172Z,996.83
2017-07-26T12:31:41.197Z,996.89
2017-07-26T12:32:41.216Z,996.88
2017-07-26T12:33:41.240Z,996.89
2017-07-26T12:34:41.268Z,996.96
2017-07-26T12:35:41.290Z,997
2017-07-26T12:36:41.317Z,996.97
2017-07-26T12:37:41.339Z,997.02
2017-07-26T12:38:41.364Z,997.06
2017-07-26T12:39:41.399Z,997.03
2017-07-26T12:40:41.414Z,997.09
2017-07-26T12:41:41.436Z,997.1
2017-07-26T12:42:41.461Z,997.07
2017-07-26T12:43:41.487Z,997.09
2017-07-26T12:44:41.509Z,997.11
2017-07-26T12:45:41.534Z,997.12
2017-07-26T12:46:41.561Z,997.18
2017-07-26T12:47:41.585Z,997.13
2017-07-26T12:48:41.607Z,997.13
2017-07-26T12:49:41.632Z,997.2
2017-07-26T12:50:41.656Z,997.14
2017-07-26T12:51:41.681Z,997.2
2017-07-26T12:52:41.705Z,997.23
2017-07-26T12:53:41.727Z,997.18
2017-07-26T12:54:41.756Z,997.24
2017-07-26T12:55:41.780Z,997.21
2017-07-26T12:56:41.804Z,997.24
2017-07-26T12:58:41.850Z,997.24
2017-07-26T12:59:41.874Z,997.23
2017-07-26T13:00:41.898Z,997.25
2017-07-26T13:01:41.924Z,997.25
2017-07-26T13:02:41.949Z,997.24
2017-07-26T13:03:41.973Z,997.27
2017-07-26T13:04:41.995Z,997.3
2017-07-26T13:05:42.018Z,997.29
2017-07-26T13:06:42.047Z,997.34
2017-07-26T13:07:42.066Z,997.3
2017-07-26T13:08:42.092Z,997.29
2017-07-26T13:09:42.116Z,997.35
2017-07-26T13:10:42.143Z,997.31
2017-07-26T13:11:42.165Z,997.37
2017-07-26T13:12:42.192Z,997.39